sensor_id;sensor_type;location;lat;lon;timestamp;P1;durP1;ratioP1;P2;durP2;ratioP2
12316;SDS011;6222;50.866;6.744;2022-08-01T00:01:52;1.17;;;0.90;;
12316;SDS011;6222;50.866;6.744;2022-08-01T00:04:19;1.23;;;1.00;;
12316;SDS011;6222;50.866;6.744;2022-08-01T00:06:46;1.80;;;0.80;;
12316;SDS011;6222;50.866;6.744;2022-08-01T00:09:13;2.50;;;1.00;;
12316;SDS011;6222;50.866;6.744;2022-08-01T00:11:41;1.63;;;0.90;;
12316;SDS011;6222;50.866;6.744;2022-08-01T00:14:08;1.70;;;0.90;;
12316;SDS011;6222;50.866;6.744;2022-08-01T00:16:35;1.70;;;1.00;;
12316;SDS011;6222;50.866;6.744;2022-08-01T00:19:04;1.83;;;1.00;;
12316;SDS011;6222;50.866;6.744;2022-08-01T00:21:31;2.08;;;1.10;;
12316;SDS011;6222;50.866;6.744;2022-08-01T00:23:58;2.10;;;0.90;;
12316;SDS011;6222;50.866;6.744;2022-08-01T00:26:25;1.23;;;0.90;;
12316;SDS011;6222;50.866;6.744;2022-08-01T00:28:52;1.75;;;1.08;;
12316;SDS011;6222;50.866;6.744;2022-08-01T00:31:19;1.33;;;1.00;;
12316;SDS011;6222;50.866;6.744;2022-08-01T00:33:47;2.17;;;1.00;;
12316;SDS011;6222;50.866;6.744;2022-08-01T00:36:15;1.87;;;1.00;;
12316;SDS011;6222;50.866;6.744;2022-08-01T00:38:42;2.67;;;0.95;;
12316;SDS011;6222;50.866;6.744;2022-08-01T00:41:09;1.65;;;0.90;;
12316;SDS011;6222;50.866;6.744;2022-08-01T00:43:36;2.22;;;1.10;;
12316;SDS011;6222;50.866;6.744;2022-08-01T00:46:04;1.73;;;1.20;;
12316;SDS011;6222;50.866;6.744;2022-08-01T00:48:31;2.65;;;1.20;;
12316;SDS011;6222;50.866;6.744;2022-08-01T00:50:58;1.50;;;1.10;;
12316;SDS011;6222;50.866;6.744;2022-08-01T00:53:26;1.97;;;1.10;;
12316;SDS011;6222;50.866;6.744;2022-08-01T00:55:53;3.50;;;1.38;;
12316;SDS011;6222;50.866;6.744;2022-08-01T00:58:21;2.05;;;1.20;;
12316;SDS011;6222;50.866;6.744;2022-08-01T01:00:48;2.70;;;1.20;;
12316;SDS011;6222;50.866;6.744;2022-08-01T01:03:15;2.15;;;1.20;;
12316;SDS011;6222;50.866;6.744;2022-08-01T01:05:45;2.30;;;1.05;;
12316;SDS011;6222;50.866;6.744;2022-08-01T01:08:19;2.42;;;1.20;;
12316;SDS011;6222;50.866;6.744;2022-08-01T01:10:52;1.20;;;1.00;;
12316;SDS011;6222;50.866;6.744;2022-08-01T01:13:23;1.40;;;1.10;;
12316;SDS011;6222;50.866;6.744;2022-08-01T01:15:55;1.40;;;1.13;;
12316;SDS011;6222;50.866;6.744;2022-08-01T01:18:25;2.10;;;1.30;;
12316;SDS011;6222;50.866;6.744;2022-08-01T01:20:55;2.15;;;1.17;;
12316;SDS011;6222;50.866;6.744;2022-08-01T01:23:29;2.00;;;1.20;;
12316;SDS011;6222;50.866;6.744;2022-08-01T01:26:04;2.05;;;1.13;;
12316;SDS011;6222;50.866;6.744;2022-08-01T01:28:39;1.83;;;1.23;;
12316;SDS011;6222;50.866;6.744;2022-08-01T01:31:09;2.25;;;1.17;;
12316;SDS011;6222;50.866;6.744;2022-08-01T01:33:37;1.80;;;1.20;;
12316;SDS011;6222;50.866;6.744;2022-08-01T01:36:08;1.38;;;1.08;;
12316;SDS011;6222;50.866;6.744;2022-08-01T01:38:36;2.50;;;1.30;;
12316;SDS011;6222;50.866;6.744;2022-08-01T01:41:07;1.77;;;1.35;;
12316;SDS011;6222;50.866;6.744;2022-08-01T01:43:35;1.80;;;1.23;;
12316;SDS011;6222;50.866;6.744;2022-08-01T01:46:02;2.70;;;1.30;;
12316;SDS011;6222;50.866;6.744;2022-08-01T01:48:31;1.50;;;1.17;;
12316;SDS011;6222;50.866;6.744;2022-08-01T01:50:59;2.50;;;1.00;;
12316;SDS011;6222;50.866;6.744;2022-08-01T01:53:27;1.17;;;1.00;;
12316;SDS011;6222;50.866;6.744;2022-08-01T01:55:55;1.80;;;1.13;;
12316;SDS011;6222;50.866;6.744;2022-08-01T01:58:24;2.30;;;1.50;;
12316;SDS011;6222;50.866;6.744;2022-08-01T02:00:52;2.00;;;1.20;;
12316;SDS011;6222;50.866;6.744;2022-08-01T02:03:20;1.73;;;0.95;;
12316;SDS011;6222;50.866;6.744;2022-08-01T02:05:49;2.25;;;1.10;;
12316;SDS011;6222;50.866;6.744;2022-08-01T02:08:17;1.43;;;1.30;;
12316;SDS011;6222;50.866;6.744;2022-08-01T02:10:45;1.10;;;1.00;;
12316;SDS011;6222;50.866;6.744;2022-08-01T02:13:33;2.65;;;1.30;;
12316;SDS011;6222;50.866;6.744;2022-08-01T02:16:01;1.95;;;1.20;;
12316;SDS011;6222;50.866;6.744;2022-08-01T02:18:29;1.50;;;1.27;;
12316;SDS011;6222;50.866;6.744;2022-08-01T02:20:58;2.13;;;1.23;;
12316;SDS011;6222;50.866;6.744;2022-08-01T02:23:27;1.80;;;0.90;;
12316;SDS011;6222;50.866;6.744;2022-08-01T02:25:55;1.40;;;1.10;;
12316;SDS011;6222;50.866;6.744;2022-08-01T02:28:24;2.17;;;1.23;;
12316;SDS011;6222;50.866;6.744;2022-08-01T02:30:53;1.45;;;0.85;;
12316;SDS011;6222;50.866;6.744;2022-08-01T02:33:22;1.50;;;1.02;;
12316;SDS011;6222;50.866;6.744;2022-08-01T02:35:50;2.17;;;1.00;;
12316;SDS011;6222;50.866;6.744;2022-08-01T02:38:20;2.15;;;1.30;;
12316;SDS011;6222;50.866;6.744;2022-08-01T02:40:49;1.90;;;1.10;;
12316;SDS011;6222;50.866;6.744;2022-08-01T02:43:18;1.98;;;1.35;;
12316;SDS011;6222;50.866;6.744;2022-08-01T02:45:47;1.80;;;1.00;;
12316;SDS011;6222;50.866;6.744;2022-08-01T02:48:15;2.15;;;1.05;;
12316;SDS011;6222;50.866;6.744;2022-08-01T02:50:44;1.65;;;1.00;;
12316;SDS011;6222;50.866;6.744;2022-08-01T02:53:12;3.10;;;1.30;;
12316;SDS011;6222;50.866;6.744;2022-08-01T02:55:41;1.98;;;1.30;;
12316;SDS011;6222;50.866;6.744;2022-08-01T02:58:10;2.55;;;1.38;;
12316;SDS011;6222;50.866;6.744;2022-08-01T03:00:39;1.60;;;1.00;;
12316;SDS011;6222;50.866;6.744;2022-08-01T03:03:06;2.88;;;1.60;;
12316;SDS011;6222;50.866;6.744;2022-08-01T03:05:34;2.42;;;1.45;;
12316;SDS011;6222;50.866;6.744;2022-08-01T03:08:02;3.20;;;1.48;;
12316;SDS011;6222;50.866;6.744;2022-08-01T03:10:29;2.45;;;1.60;;
12316;SDS011;6222;50.866;6.744;2022-08-01T03:12:59;2.15;;;1.25;;
12316;SDS011;6222;50.866;6.744;2022-08-01T03:15:27;2.45;;;1.50;;
12316;SDS011;6222;50.866;6.744;2022-08-01T03:17:56;2.30;;;1.40;;
12316;SDS011;6222;50.866;6.744;2022-08-01T03:20:26;2.22;;;1.30;;
12316;SDS011;6222;50.866;6.744;2022-08-01T03:22:53;2.28;;;1.40;;
12316;SDS011;6222;50.866;6.744;2022-08-01T03:25:22;3.35;;;1.20;;
12316;SDS011;6222;50.866;6.744;2022-08-01T03:27:52;1.92;;;1.33;;
12316;SDS011;6222;50.866;6.744;2022-08-01T03:30:22;2.28;;;1.52;;
12316;SDS011;6222;50.866;6.744;2022-08-01T03:32:50;3.43;;;1.57;;
12316;SDS011;6222;50.866;6.744;2022-08-01T03:35:17;2.70;;;1.60;;
12316;SDS011;6222;50.866;6.744;2022-08-01T03:37:45;2.35;;;1.48;;
12316;SDS011;6222;50.866;6.744;2022-08-01T03:40:13;2.17;;;1.77;;
12316;SDS011;6222;50.866;6.744;2022-08-01T03:42:45;3.22;;;1.92;;
12316;SDS011;6222;50.866;6.744;2022-08-01T03:45:15;5.28;;;1.77;;
12316;SDS011;6222;50.866;6.744;2022-08-01T03:47:47;3.40;;;1.52;;
12316;SDS011;6222;50.866;6.744;2022-08-01T03:50:15;2.70;;;1.60;;
12316;SDS011;6222;50.866;6.744;2022-08-01T03:52:43;2.47;;;1.77;;
12316;SDS011;6222;50.866;6.744;2022-08-01T03:55:11;3.33;;;1.95;;
12316;SDS011;6222;50.866;6.744;2022-08-01T03:57:39;2.78;;;1.90;;
12316;SDS011;6222;50.866;6.744;2022-08-01T04:00:07;3.97;;;2.07;;
12316;SDS011;6222;50.866;6.744;2022-08-01T04:02:34;4.65;;;2.10;;
12316;SDS011;6222;50.866;6.744;2022-08-01T04:05:03;2.20;;;1.90;;
12316;SDS011;6222;50.866;6.744;2022-08-01T04:07:32;2.30;;;1.92;;
12316;SDS011;6222;50.866;6.744;2022-08-01T04:10:00;2.88;;;2.22;;
12316;SDS011;6222;50.866;6.744;2022-08-01T04:12:28;4.30;;;2.30;;
12316;SDS011;6222;50.866;6.744;2022-08-01T04:14:55;3.40;;;2.30;;
12316;SDS011;6222;50.866;6.744;2022-08-01T04:17:22;3.70;;;2.20;;
12316;SDS011;6222;50.866;6.744;2022-08-01T04:19:50;3.03;;;2.30;;
12316;SDS011;6222;50.866;6.744;2022-08-01T04:22:18;3.70;;;2.40;;
12316;SDS011;6222;50.866;6.744;2022-08-01T04:24:47;3.60;;;2.50;;
12316;SDS011;6222;50.866;6.744;2022-08-01T04:27:16;4.05;;;2.38;;
12316;SDS011;6222;50.866;6.744;2022-08-01T04:29:44;3.92;;;2.40;;
12316;SDS011;6222;50.866;6.744;2022-08-01T04:32:15;3.25;;;2.85;;
12316;SDS011;6222;50.866;6.744;2022-08-01T04:34:43;4.55;;;2.58;;
12316;SDS011;6222;50.866;6.744;2022-08-01T04:37:12;4.28;;;2.67;;
12316;SDS011;6222;50.866;6.744;2022-08-01T04:39:42;4.80;;;2.70;;
12316;SDS011;6222;50.866;6.744;2022-08-01T04:42:11;4.07;;;2.88;;
12316;SDS011;6222;50.866;6.744;2022-08-01T04:44:38;3.53;;;2.50;;
12316;SDS011;6222;50.866;6.744;2022-08-01T04:47:06;4.20;;;2.70;;
12316;SDS011;6222;50.866;6.744;2022-08-01T04:49:33;7.10;;;4.25;;
12316;SDS011;6222;50.866;6.744;2022-08-01T04:52:01;5.43;;;3.15;;
12316;SDS011;6222;50.866;6.744;2022-08-01T04:54:29;3.75;;;3.00;;
12316;SDS011;6222;50.866;6.744;2022-08-01T04:56:59;3.80;;;2.60;;
12316;SDS011;6222;50.866;6.744;2022-08-01T04:59:27;4.50;;;3.17;;
12316;SDS011;6222;50.866;6.744;2022-08-01T05:02:06;4.63;;;2.92;;
12316;SDS011;6222;50.866;6.744;2022-08-01T05:04:34;3.80;;;2.83;;
12316;SDS011;6222;50.866;6.744;2022-08-01T05:07:01;5.07;;;3.13;;
12316;SDS011;6222;50.866;6.744;2022-08-01T05:09:29;5.07;;;3.28;;
12316;SDS011;6222;50.866;6.744;2022-08-01T05:11:56;5.20;;;3.80;;
12316;SDS011;6222;50.866;6.744;2022-08-01T05:14:25;4.95;;;3.75;;
12316;SDS011;6222;50.866;6.744;2022-08-01T05:16:52;5.53;;;3.83;;
12316;SDS011;6222;50.866;6.744;2022-08-01T05:19:20;6.28;;;4.22;;
12316;SDS011;6222;50.866;6.744;2022-08-01T05:21:47;6.15;;;3.75;;
12316;SDS011;6222;50.866;6.744;2022-08-01T05:24:14;4.68;;;3.50;;
12316;SDS011;6222;50.866;6.744;2022-08-01T05:26:41;5.50;;;4.15;;
12316;SDS011;6222;50.866;6.744;2022-08-01T05:29:08;4.45;;;3.60;;
12316;SDS011;6222;50.866;6.744;2022-08-01T05:31:39;5.28;;;3.92;;
12316;SDS011;6222;50.866;6.744;2022-08-01T05:34:06;4.72;;;3.80;;
12316;SDS011;6222;50.866;6.744;2022-08-01T05:36:33;6.15;;;4.03;;
12316;SDS011;6222;50.866;6.744;2022-08-01T05:39:02;5.40;;;3.90;;
12316;SDS011;6222;50.866;6.744;2022-08-01T05:41:29;7.75;;;4.10;;
12316;SDS011;6222;50.866;6.744;2022-08-01T05:43:56;5.60;;;3.60;;
12316;SDS011;6222;50.866;6.744;2022-08-01T05:46:23;5.05;;;3.53;;
12316;SDS011;6222;50.866;6.744;2022-08-01T05:48:52;5.45;;;3.88;;
12316;SDS011;6222;50.866;6.744;2022-08-01T05:51:19;6.22;;;4.07;;
12316;SDS011;6222;50.866;6.744;2022-08-01T05:53:46;6.00;;;3.67;;
12316;SDS011;6222;50.866;6.744;2022-08-01T05:56:13;5.95;;;3.67;;
12316;SDS011;6222;50.866;6.744;2022-08-01T05:58:40;6.28;;;4.03;;
12316;SDS011;6222;50.866;6.744;2022-08-01T06:01:07;9.82;;;5.82;;
12316;SDS011;6222;50.866;6.744;2022-08-01T06:03:35;5.75;;;4.22;;
12316;SDS011;6222;50.866;6.744;2022-08-01T06:06:03;6.93;;;4.43;;
12316;SDS011;6222;50.866;6.744;2022-08-01T06:08:31;5.07;;;3.72;;
12316;SDS011;6222;50.866;6.744;2022-08-01T06:10:58;6.00;;;4.22;;
12316;SDS011;6222;50.866;6.744;2022-08-01T06:13:26;6.38;;;4.43;;
12316;SDS011;6222;50.866;6.744;2022-08-01T06:15:53;6.50;;;4.55;;
12316;SDS011;6222;50.866;6.744;2022-08-01T06:18:20;7.77;;;4.50;;
12316;SDS011;6222;50.866;6.744;2022-08-01T06:20:48;9.43;;;5.30;;
12316;SDS011;6222;50.866;6.744;2022-08-01T06:23:16;6.13;;;4.30;;
12316;SDS011;6222;50.866;6.744;2022-08-01T06:25:43;5.83;;;4.50;;
12316;SDS011;6222;50.866;6.744;2022-08-01T06:28:10;7.28;;;4.50;;
12316;SDS011;6222;50.866;6.744;2022-08-01T06:30:37;7.80;;;4.63;;
12316;SDS011;6222;50.866;6.744;2022-08-01T06:33:04;6.80;;;4.70;;
12316;SDS011;6222;50.866;6.744;2022-08-01T06:35:32;5.77;;;4.50;;
12316;SDS011;6222;50.866;6.744;2022-08-01T06:37:59;5.22;;;4.00;;
12316;SDS011;6222;50.866;6.744;2022-08-01T06:40:27;6.28;;;3.70;;
12316;SDS011;6222;50.866;6.744;2022-08-01T06:42:55;4.90;;;4.15;;
12316;SDS011;6222;50.866;6.744;2022-08-01T06:45:22;5.63;;;3.97;;
12316;SDS011;6222;50.866;6.744;2022-08-01T06:47:50;6.47;;;4.80;;
12316;SDS011;6222;50.866;6.744;2022-08-01T06:50:18;6.22;;;4.47;;
12316;SDS011;6222;50.866;6.744;2022-08-01T06:52:45;5.30;;;3.85;;
12316;SDS011;6222;50.866;6.744;2022-08-01T06:55:13;6.00;;;3.92;;
12316;SDS011;6222;50.866;6.744;2022-08-01T06:57:48;5.93;;;4.17;;
12316;SDS011;6222;50.866;6.744;2022-08-01T07:00:16;6.72;;;4.30;;
12316;SDS011;6222;50.866;6.744;2022-08-01T07:02:45;7.22;;;3.90;;
12316;SDS011;6222;50.866;6.744;2022-08-01T07:05:13;4.78;;;3.90;;
12316;SDS011;6222;50.866;6.744;2022-08-01T07:07:40;5.88;;;3.95;;
12316;SDS011;6222;50.866;6.744;2022-08-01T07:10:07;5.90;;;3.97;;
12316;SDS011;6222;50.866;6.744;2022-08-01T07:12:34;6.53;;;4.20;;
12316;SDS011;6222;50.866;6.744;2022-08-01T07:15:05;6.15;;;4.15;;
12316;SDS011;6222;50.866;6.744;2022-08-01T07:17:35;6.65;;;4.25;;
12316;SDS011;6222;50.866;6.744;2022-08-01T07:20:03;6.28;;;4.47;;
12316;SDS011;6222;50.866;6.744;2022-08-01T07:22:30;6.28;;;4.43;;
12316;SDS011;6222;50.866;6.744;2022-08-01T07:24:57;5.22;;;4.00;;
12316;SDS011;6222;50.866;6.744;2022-08-01T07:27:24;5.83;;;4.10;;
12316;SDS011;6222;50.866;6.744;2022-08-01T07:29:51;7.90;;;4.03;;
12316;SDS011;6222;50.866;6.744;2022-08-01T07:32:20;6.13;;;4.38;;
12316;SDS011;6222;50.866;6.744;2022-08-01T07:34:47;6.25;;;4.38;;
12316;SDS011;6222;50.866;6.744;2022-08-01T07:37:14;5.45;;;4.15;;
12316;SDS011;6222;50.866;6.744;2022-08-01T07:39:41;4.68;;;3.90;;
12316;SDS011;6222;50.866;6.744;2022-08-01T07:42:09;5.20;;;4.43;;
12316;SDS011;6222;50.866;6.744;2022-08-01T07:44:36;5.93;;;4.30;;
12316;SDS011;6222;50.866;6.744;2022-08-01T07:47:04;6.55;;;4.25;;
12316;SDS011;6222;50.866;6.744;2022-08-01T07:49:32;4.85;;;4.00;;
12316;SDS011;6222;50.866;6.744;2022-08-01T07:51:59;5.38;;;3.90;;
12316;SDS011;6222;50.866;6.744;2022-08-01T07:54:27;5.40;;;3.90;;
12316;SDS011;6222;50.866;6.744;2022-08-01T07:56:54;9.13;;;4.17;;
12316;SDS011;6222;50.866;6.744;2022-08-01T07:59:21;5.22;;;3.83;;
12316;SDS011;6222;50.866;6.744;2022-08-01T08:01:48;5.93;;;4.20;;
12316;SDS011;6222;50.866;6.744;2022-08-01T08:04:16;5.95;;;4.20;;
12316;SDS011;6222;50.866;6.744;2022-08-01T08:06:45;5.68;;;3.67;;
12316;SDS011;6222;50.866;6.744;2022-08-01T08:09:14;4.55;;;3.30;;
12316;SDS011;6222;50.866;6.744;2022-08-01T08:11:41;5.90;;;3.60;;
12316;SDS011;6222;50.866;6.744;2022-08-01T08:14:09;5.43;;;3.70;;
12316;SDS011;6222;50.866;6.744;2022-08-01T08:16:36;4.27;;;3.70;;
12316;SDS011;6222;50.866;6.744;2022-08-01T08:19:03;3.83;;;3.17;;
12316;SDS011;6222;50.866;6.744;2022-08-01T08:21:30;3.90;;;3.40;;
12316;SDS011;6222;50.866;6.744;2022-08-01T08:23:59;5.78;;;3.47;;
12316;SDS011;6222;50.866;6.744;2022-08-01T08:26:44;3.55;;;2.80;;
12316;SDS011;6222;50.866;6.744;2022-08-01T08:29:11;3.80;;;3.03;;
12316;SDS011;6222;50.866;6.744;2022-08-01T08:31:38;4.32;;;3.53;;
12316;SDS011;6222;50.866;6.744;2022-08-01T08:34:05;3.50;;;2.80;;
12316;SDS011;6222;50.866;6.744;2022-08-01T08:36:33;3.42;;;2.78;;
12316;SDS011;6222;50.866;6.744;2022-08-01T08:39:01;3.30;;;2.53;;
12316;SDS011;6222;50.866;6.744;2022-08-01T08:41:29;3.25;;;2.95;;
12316;SDS011;6222;50.866;6.744;2022-08-01T08:43:56;4.38;;;3.38;;
12316;SDS011;6222;50.866;6.744;2022-08-01T08:46:24;3.30;;;2.90;;
12316;SDS011;6222;50.866;6.744;2022-08-01T08:48:52;5.65;;;3.40;;
12316;SDS011;6222;50.866;6.744;2022-08-01T08:51:19;2.75;;;2.55;;
12316;SDS011;6222;50.866;6.744;2022-08-01T08:53:46;3.38;;;2.80;;
12316;SDS011;6222;50.866;6.744;2022-08-01T08:56:15;3.63;;;2.90;;
12316;SDS011;6222;50.866;6.744;2022-08-01T08:58:42;3.53;;;2.70;;
12316;SDS011;6222;50.866;6.744;2022-08-01T09:01:10;4.10;;;3.22;;
12316;SDS011;6222;50.866;6.744;2022-08-01T09:03:38;3.00;;;2.45;;
12316;SDS011;6222;50.866;6.744;2022-08-01T09:06:05;3.87;;;2.73;;
12316;SDS011;6222;50.866;6.744;2022-08-01T09:08:33;3.15;;;2.78;;
12316;SDS011;6222;50.866;6.744;2022-08-01T09:11:00;3.50;;;2.88;;
12316;SDS011;6222;50.866;6.744;2022-08-01T09:13:28;3.40;;;2.75;;
12316;SDS011;6222;50.866;6.744;2022-08-01T09:15:56;4.80;;;2.95;;
12316;SDS011;6222;50.866;6.744;2022-08-01T09:18:27;3.60;;;3.00;;
12316;SDS011;6222;50.866;6.744;2022-08-01T09:21:11;4.22;;;3.00;;
12316;SDS011;6222;50.866;6.744;2022-08-01T09:23:40;3.22;;;2.70;;
12316;SDS011;6222;50.866;6.744;2022-08-01T09:26:08;5.05;;;2.95;;
12316;SDS011;6222;50.866;6.744;2022-08-01T09:28:37;4.32;;;2.58;;
12316;SDS011;6222;50.866;6.744;2022-08-01T09:31:08;3.45;;;2.88;;
12316;SDS011;6222;50.866;6.744;2022-08-01T09:33:51;3.67;;;2.80;;
12316;SDS011;6222;50.866;6.744;2022-08-01T09:36:19;4.10;;;2.77;;
12316;SDS011;6222;50.866;6.744;2022-08-01T09:38:47;3.28;;;2.95;;
12316;SDS011;6222;50.866;6.744;2022-08-01T09:41:14;3.78;;;2.72;;
12316;SDS011;6222;50.866;6.744;2022-08-01T09:43:48;3.20;;;2.67;;
12316;SDS011;6222;50.866;6.744;2022-08-01T09:46:16;3.80;;;2.83;;
12316;SDS011;6222;50.866;6.744;2022-08-01T09:48:56;3.60;;;2.63;;
12316;SDS011;6222;50.866;6.744;2022-08-01T09:51:30;3.08;;;2.42;;
12316;SDS011;6222;50.866;6.744;2022-08-01T09:53:57;3.10;;;2.70;;
12316;SDS011;6222;50.866;6.744;2022-08-01T09:56:24;3.60;;;2.97;;
12316;SDS011;6222;50.866;6.744;2022-08-01T09:58:54;2.55;;;2.22;;
12316;SDS011;6222;50.866;6.744;2022-08-01T10:01:21;2.80;;;2.40;;
12316;SDS011;6222;50.866;6.744;2022-08-01T10:04:03;2.75;;;2.53;;
12316;SDS011;6222;50.866;6.744;2022-08-01T10:06:30;3.08;;;2.78;;
12316;SDS011;6222;50.866;6.744;2022-08-01T10:08:57;3.17;;;2.53;;
12316;SDS011;6222;50.866;6.744;2022-08-01T10:11:24;5.43;;;2.90;;
12316;SDS011;6222;50.866;6.744;2022-08-01T10:13:52;3.50;;;3.00;;
12316;SDS011;6222;50.866;6.744;2022-08-01T10:16:20;3.57;;;2.50;;
12316;SDS011;6222;50.866;6.744;2022-08-01T10:18:47;3.53;;;2.60;;
12316;SDS011;6222;50.866;6.744;2022-08-01T10:21:15;3.00;;;2.70;;
12316;SDS011;6222;50.866;6.744;2022-08-01T10:23:42;3.47;;;3.00;;
12316;SDS011;6222;50.866;6.744;2022-08-01T10:26:10;3.17;;;2.70;;
12316;SDS011;6222;50.866;6.744;2022-08-01T10:28:37;4.15;;;2.88;;
12316;SDS011;6222;50.866;6.744;2022-08-01T10:31:05;3.53;;;2.60;;
12316;SDS011;6222;50.866;6.744;2022-08-01T10:33:34;4.07;;;3.40;;
12316;SDS011;6222;50.866;6.744;2022-08-01T10:36:04;4.35;;;3.65;;
12316;SDS011;6222;50.866;6.744;2022-08-01T10:38:31;4.97;;;3.40;;
12316;SDS011;6222;50.866;6.744;2022-08-01T10:40:59;3.58;;;3.15;;
12316;SDS011;6222;50.866;6.744;2022-08-01T10:43:26;3.95;;;3.17;;
12316;SDS011;6222;50.866;6.744;2022-08-01T10:45:53;3.70;;;3.40;;
12316;SDS011;6222;50.866;6.744;2022-08-01T10:48:22;3.47;;;2.60;;
12316;SDS011;6222;50.866;6.744;2022-08-01T10:50:53;3.95;;;2.95;;
12316;SDS011;6222;50.866;6.744;2022-08-01T10:53:22;3.35;;;2.60;;
12316;SDS011;6222;50.866;6.744;2022-08-01T10:55:50;3.70;;;2.83;;
12316;SDS011;6222;50.866;6.744;2022-08-01T10:58:21;3.30;;;2.85;;
12316;SDS011;6222;50.866;6.744;2022-08-01T11:00:49;4.75;;;2.67;;
12316;SDS011;6222;50.866;6.744;2022-08-01T11:03:36;3.13;;;2.22;;
12316;SDS011;6222;50.866;6.744;2022-08-01T11:06:04;3.42;;;2.60;;
12316;SDS011;6222;50.866;6.744;2022-08-01T11:08:31;3.65;;;2.65;;
12316;SDS011;6222;50.866;6.744;2022-08-01T11:11:03;3.40;;;2.63;;
12316;SDS011;6222;50.866;6.744;2022-08-01T11:16:34;3.17;;;2.88;;
12316;SDS011;6222;50.866;6.744;2022-08-01T11:19:02;2.92;;;2.60;;
12316;SDS011;6222;50.866;6.744;2022-08-01T11:27:17;3.15;;;2.60;;
12316;SDS011;6222;50.866;6.744;2022-08-01T11:29:48;4.47;;;2.78;;
12316;SDS011;6222;50.866;6.744;2022-08-01T11:32:43;3.45;;;3.10;;
12316;SDS011;6222;50.866;6.744;2022-08-01T11:35:12;3.25;;;2.63;;
12316;SDS011;6222;50.866;6.744;2022-08-01T11:37:39;2.88;;;2.53;;
12316;SDS011;6222;50.866;6.744;2022-08-01T11:40:16;3.10;;;2.50;;
12316;SDS011;6222;50.866;6.744;2022-08-01T11:42:44;3.85;;;2.53;;
12316;SDS011;6222;50.866;6.744;2022-08-01T11:45:11;2.70;;;2.13;;
12316;SDS011;6222;50.866;6.744;2022-08-01T11:47:43;2.58;;;1.90;;
12316;SDS011;6222;50.866;6.744;2022-08-01T11:52:56;2.47;;;1.90;;
12316;SDS011;6222;50.866;6.744;2022-08-01T11:55:24;2.03;;;1.70;;
12316;SDS011;6222;50.866;6.744;2022-08-01T11:57:59;2.35;;;1.80;;
12316;SDS011;6222;50.866;6.744;2022-08-01T12:00:27;2.38;;;2.03;;
12316;SDS011;6222;50.866;6.744;2022-08-01T12:02:58;1.90;;;1.77;;
12316;SDS011;6222;50.866;6.744;2022-08-01T12:05:26;2.45;;;1.80;;
12316;SDS011;6222;50.866;6.744;2022-08-01T12:07:54;2.03;;;1.83;;
12316;SDS011;6222;50.866;6.744;2022-08-01T12:10:22;1.95;;;1.75;;
12316;SDS011;6222;50.866;6.744;2022-08-01T12:12:50;2.53;;;1.90;;
12316;SDS011;6222;50.866;6.744;2022-08-01T12:15:20;2.17;;;1.90;;
12316;SDS011;6222;50.866;6.744;2022-08-01T12:17:48;2.20;;;1.90;;
12316;SDS011;6222;50.866;6.744;2022-08-01T12:20:18;1.88;;;1.70;;
12316;SDS011;6222;50.866;6.744;2022-08-01T12:22:46;2.45;;;1.77;;
12316;SDS011;6222;50.866;6.744;2022-08-01T12:25:14;2.50;;;2.15;;
12316;SDS011;6222;50.866;6.744;2022-08-01T12:27:42;2.40;;;2.00;;
12316;SDS011;6222;50.866;6.744;2022-08-01T12:30:11;2.60;;;1.90;;
12316;SDS011;6222;50.866;6.744;2022-08-01T12:32:41;3.17;;;2.00;;
12316;SDS011;6222;50.866;6.744;2022-08-01T12:35:09;2.23;;;2.03;;
12316;SDS011;6222;50.866;6.744;2022-08-01T12:37:37;3.03;;;2.00;;
12316;SDS011;6222;50.866;6.744;2022-08-01T12:40:11;2.38;;;2.15;;
12316;SDS011;6222;50.866;6.744;2022-08-01T12:42:39;2.20;;;2.00;;
12316;SDS011;6222;50.866;6.744;2022-08-01T12:45:07;2.88;;;1.98;;
12316;SDS011;6222;50.866;6.744;2022-08-01T12:47:35;3.03;;;2.50;;
12316;SDS011;6222;50.866;6.744;2022-08-01T12:50:04;2.40;;;2.20;;
12316;SDS011;6222;50.866;6.744;2022-08-01T12:52:32;3.23;;;2.20;;
12316;SDS011;6222;50.866;6.744;2022-08-01T12:54:59;2.28;;;2.00;;
12316;SDS011;6222;50.866;6.744;2022-08-01T12:57:27;2.40;;;2.08;;
12316;SDS011;6222;50.866;6.744;2022-08-01T13:00:04;3.17;;;2.42;;
12316;SDS011;6222;50.866;6.744;2022-08-01T13:02:32;3.30;;;2.00;;
12316;SDS011;6222;50.866;6.744;2022-08-01T13:04:59;2.40;;;2.13;;
12316;SDS011;6222;50.866;6.744;2022-08-01T13:07:35;3.20;;;2.40;;
12316;SDS011;6222;50.866;6.744;2022-08-01T13:10:02;2.72;;;2.30;;
12316;SDS011;6222;50.866;6.744;2022-08-01T13:12:30;2.10;;;1.90;;
12316;SDS011;6222;50.866;6.744;2022-08-01T13:14:57;2.05;;;1.85;;
12316;SDS011;6222;50.866;6.744;2022-08-01T13:17:30;2.75;;;1.77;;
12316;SDS011;6222;50.866;6.744;2022-08-01T13:19:58;1.75;;;1.55;;
12316;SDS011;6222;50.866;6.744;2022-08-01T13:22:31;2.15;;;1.75;;
12316;SDS011;6222;50.866;6.744;2022-08-01T13:25:10;1.48;;;1.38;;
12316;SDS011;6222;50.866;6.744;2022-08-01T13:27:37;2.45;;;1.73;;
12316;SDS011;6222;50.866;6.744;2022-08-01T13:30:10;3.40;;;1.80;;
12316;SDS011;6222;50.866;6.744;2022-08-01T13:32:38;1.83;;;1.60;;
12316;SDS011;6222;50.866;6.744;2022-08-01T13:35:05;1.80;;;1.60;;
12316;SDS011;6222;50.866;6.744;2022-08-01T13:37:33;1.70;;;1.60;;
12316;SDS011;6222;50.866;6.744;2022-08-01T13:40:01;2.00;;;1.80;;
12316;SDS011;6222;50.866;6.744;2022-08-01T13:42:29;1.63;;;1.40;;
12316;SDS011;6222;50.866;6.744;2022-08-01T13:44:57;2.22;;;1.50;;
12316;SDS011;6222;50.866;6.744;2022-08-01T13:47:24;2.25;;;1.30;;
12316;SDS011;6222;50.866;6.744;2022-08-01T13:49:51;1.48;;;1.38;;
12316;SDS011;6222;50.866;6.744;2022-08-01T13:52:18;1.83;;;1.50;;
12316;SDS011;6222;50.866;6.744;2022-08-01T13:54:46;2.00;;;1.40;;
12316;SDS011;6222;50.866;6.744;2022-08-01T13:57:13;1.50;;;1.30;;
12316;SDS011;6222;50.866;6.744;2022-08-01T13:59:42;2.57;;;1.50;;
12316;SDS011;6222;50.866;6.744;2022-08-01T14:02:10;2.57;;;1.20;;
12316;SDS011;6222;50.866;6.744;2022-08-01T14:04:37;1.50;;;1.40;;
12316;SDS011;6222;50.866;6.744;2022-08-01T14:07:04;2.90;;;1.80;;
12316;SDS011;6222;50.866;6.744;2022-08-01T14:09:32;1.70;;;1.35;;
12316;SDS011;6222;50.866;6.744;2022-08-01T14:11:59;1.60;;;1.38;;
12316;SDS011;6222;50.866;6.744;2022-08-01T14:14:26;2.03;;;1.35;;
12316;SDS011;6222;50.866;6.744;2022-08-01T14:16:55;1.65;;;1.27;;
12316;SDS011;6222;50.866;6.744;2022-08-01T14:19:22;3.05;;;1.40;;
12316;SDS011;6222;50.866;6.744;2022-08-01T14:21:49;1.50;;;1.40;;
12316;SDS011;6222;50.866;6.744;2022-08-01T14:24:17;2.92;;;1.65;;
12316;SDS011;6222;50.866;6.744;2022-08-01T14:26:44;1.23;;;1.13;;
12316;SDS011;6222;50.866;6.744;2022-08-01T14:29:11;1.42;;;1.33;;
12316;SDS011;6222;50.866;6.744;2022-08-01T14:31:38;1.50;;;1.40;;
12316;SDS011;6222;50.866;6.744;2022-08-01T14:34:07;2.30;;;1.60;;
12316;SDS011;6222;50.866;6.744;2022-08-01T14:36:34;1.60;;;1.50;;
12316;SDS011;6222;50.866;6.744;2022-08-01T14:39:02;1.65;;;1.45;;
12316;SDS011;6222;50.866;6.744;2022-08-01T14:41:29;2.53;;;1.60;;
12316;SDS011;6222;50.866;6.744;2022-08-01T14:43:56;1.98;;;1.50;;
12316;SDS011;6222;50.866;6.744;2022-08-01T14:46:24;2.13;;;1.50;;
12316;SDS011;6222;50.866;6.744;2022-08-01T14:48:51;2.20;;;1.63;;
12316;SDS011;6222;50.866;6.744;2022-08-01T14:51:23;1.60;;;1.33;;
12316;SDS011;6222;50.866;6.744;2022-08-01T14:53:50;1.75;;;1.58;;
12316;SDS011;6222;50.866;6.744;2022-08-01T14:56:18;2.28;;;1.35;;
12316;SDS011;6222;50.866;6.744;2022-08-01T14:58:45;1.27;;;1.10;;
12316;SDS011;6222;50.866;6.744;2022-08-01T15:01:12;1.60;;;1.25;;
12316;SDS011;6222;50.866;6.744;2022-08-01T15:03:39;1.80;;;1.50;;
12316;SDS011;6222;50.866;6.744;2022-08-01T15:06:06;1.35;;;1.10;;
12316;SDS011;6222;50.866;6.744;2022-08-01T15:08:37;1.77;;;1.60;;
12316;SDS011;6222;50.866;6.744;2022-08-01T15:11:04;3.17;;;2.00;;
12316;SDS011;6222;50.866;6.744;2022-08-01T15:13:33;2.00;;;1.60;;
12316;SDS011;6222;50.866;6.744;2022-08-01T15:16:00;1.50;;;1.40;;
12316;SDS011;6222;50.866;6.744;2022-08-01T15:18:28;1.75;;;1.58;;
12316;SDS011;6222;50.866;6.744;2022-08-01T15:20:55;1.40;;;1.20;;